sensor_id;sensor_type;location;lat;lon;timestamp;temperature;humidity
23717;DHT22;22094;52.130;5.598;2022-09-09T00:04:29;14.80;99.90
23717;DHT22;22094;52.130;5.598;2022-09-09T00:09:35;14.70;99.90
23717;DHT22;22094;52.130;5.598;2022-09-09T00:12:14;14.70;99.90
23717;DHT22;22094;52.130;5.598;2022-09-09T00:15:07;14.60;99.90
23717;DHT22;22094;52.130;5.598;2022-09-09T00:17:43;14.60;99.90
23717;DHT22;22094;52.130;5.598;2022-09-09T00:22:42;14.60;99.90
23717;DHT22;22094;52.130;5.598;2022-09-09T00:25:15;14.60;99.90
23717;DHT22;22094;52.130;5.598;2022-09-09T00:27:48;14.60;99.90
23717;DHT22;22094;52.130;5.598;2022-09-09T00:33:10;14.60;99.90
23717;DHT22;22094;52.130;5.598;2022-09-09T00:35:44;14.60;99.90
23717;DHT22;22094;52.130;5.598;2022-09-09T00:38:17;14.60;99.90
23717;DHT22;22094;52.130;5.598;2022-09-09T00:40:53;14.60;99.90
23717;DHT22;22094;52.130;5.598;2022-09-09T00:43:31;14.60;99.90
23717;DHT22;22094;52.130;5.598;2022-09-09T00:46:10;14.60;99.90
23717;DHT22;22094;52.130;5.598;2022-09-09T00:49:00;14.50;99.90
23717;DHT22;22094;52.130;5.598;2022-09-09T00:57:06;14.40;99.90
23717;DHT22;22094;52.130;5.598;2022-09-09T01:04:53;14.40;99.90
23717;DHT22;22094;52.130;5.598;2022-09-09T01:07:20;14.30;99.90
23717;DHT22;22094;52.130;5.598;2022-09-09T01:09:55;14.20;99.90
23717;DHT22;22094;52.130;5.598;2022-09-09T01:12:41;14.30;99.90
23717;DHT22;22094;52.130;5.598;2022-09-09T01:18:05;14.20;99.90
23717;DHT22;22094;52.130;5.598;2022-09-09T01:20:52;14.10;99.90
23717;DHT22;22094;52.130;5.598;2022-09-09T01:28:50;14.10;99.90
23717;DHT22;22094;52.130;5.598;2022-09-09T01:31:42;14.00;99.90
23717;DHT22;22094;52.130;5.598;2022-09-09T01:34:10;14.10;99.90
23717;DHT22;22094;52.130;5.598;2022-09-09T01:39:26;14.00;99.90
23717;DHT22;22094;52.130;5.598;2022-09-09T01:41:53;14.00;99.90
23717;DHT22;22094;52.130;5.598;2022-09-09T01:44:19;13.90;99.90
23717;DHT22;22094;52.130;5.598;2022-09-09T01:46:45;13.80;99.90
23717;DHT22;22094;52.130;5.598;2022-09-09T01:49:11;13.80;99.90
23717;DHT22;22094;52.130;5.598;2022-09-09T01:51:38;13.70;99.90
23717;DHT22;22094;52.130;5.598;2022-09-09T01:54:05;13.70;99.90
23717;DHT22;22094;52.130;5.598;2022-09-09T01:56:53;13.70;99.90
23717;DHT22;22094;52.130;5.598;2022-09-09T01:59:37;13.70;99.90
23717;DHT22;22094;52.130;5.598;2022-09-09T02:02:30;13.70;99.90
23717;DHT22;22094;52.130;5.598;2022-09-09T02:07:47;13.60;99.90
23717;DHT22;22094;52.130;5.598;2022-09-09T02:12:43;13.60;99.90
23717;DHT22;22094;52.130;5.598;2022-09-09T02:15:25;13.60;99.90
23717;DHT22;22094;52.130;5.598;2022-09-09T02:17:52;13.50;99.90
23717;DHT22;22094;52.130;5.598;2022-09-09T02:20:19;13.50;99.90
23717;DHT22;22094;52.130;5.598;2022-09-09T02:22:49;13.40;99.90
23717;DHT22;22094;52.130;5.598;2022-09-09T02:25:17;13.40;99.90
23717;DHT22;22094;52.130;5.598;2022-09-09T02:27:46;13.30;99.90
23717;DHT22;22094;52.130;5.598;2022-09-09T02:30:13;13.30;99.90
23717;DHT22;22094;52.130;5.598;2022-09-09T02:32:40;13.30;99.90
23717;DHT22;22094;52.130;5.598;2022-09-09T02:35:11;13.30;99.90
23717;DHT22;22094;52.130;5.598;2022-09-09T02:37:42;13.20;99.90
23717;DHT22;22094;52.130;5.598;2022-09-09T02:40:10;13.20;99.90
23717;DHT22;22094;52.130;5.598;2022-09-09T02:42:43;13.20;99.90
23717;DHT22;22094;52.130;5.598;2022-09-09T02:45:11;13.20;99.90
23717;DHT22;22094;52.130;5.598;2022-09-09T02:50:30;13.10;99.90
23717;DHT22;22094;52.130;5.598;2022-09-09T02:53:18;13.20;99.90
23717;DHT22;22094;52.130;5.598;2022-09-09T02:55:47;13.20;99.90
23717;DHT22;22094;52.130;5.598;2022-09-09T02:58:16;13.10;99.90
23717;DHT22;22094;52.130;5.598;2022-09-09T03:00:44;13.20;99.90
23717;DHT22;22094;52.130;5.598;2022-09-09T03:03:10;13.10;99.90
23717;DHT22;22094;52.130;5.598;2022-09-09T03:05:36;13.10;99.90
23717;DHT22;22094;52.130;5.598;2022-09-09T03:08:03;13.10;99.90
23717;DHT22;22094;52.130;5.598;2022-09-09T03:10:29;13.10;99.90
23717;DHT22;22094;52.130;5.598;2022-09-09T03:12:54;13.00;99.90
23717;DHT22;22094;52.130;5.598;2022-09-09T03:15:21;12.90;99.90
23717;DHT22;22094;52.130;5.598;2022-09-09T03:17:46;13.00;99.90
23717;DHT22;22094;52.130;5.598;2022-09-09T03:20:12;13.00;99.90
23717;DHT22;22094;52.130;5.598;2022-09-09T03:22:38;13.00;99.90
23717;DHT22;22094;52.130;5.598;2022-09-09T03:25:04;13.00;99.90
23717;DHT22;22094;52.130;5.598;2022-09-09T03:27:31;13.10;99.90
23717;DHT22;22094;52.130;5.598;2022-09-09T03:29:57;13.10;99.90
23717;DHT22;22094;52.130;5.598;2022-09-09T03:32:23;13.00;99.90
23717;DHT22;22094;52.130;5.598;2022-09-09T03:34:51;13.00;99.90
23717;DHT22;22094;52.130;5.598;2022-09-09T03:37:17;13.00;99.90
23717;DHT22;22094;52.130;5.598;2022-09-09T03:39:43;12.90;99.90
23717;DHT22;22094;52.130;5.598;2022-09-09T03:42:09;13.00;99.90
23717;DHT22;22094;52.130;5.598;2022-09-09T03:44:39;13.00;99.90
23717;DHT22;22094;52.130;5.598;2022-09-09T03:47:05;13.00;99.90
23717;DHT22;22094;52.130;5.598;2022-09-09T03:49:34;13.00;99.90
23717;DHT22;22094;52.130;5.598;2022-09-09T03:52:00;13.00;99.90
23717;DHT22;22094;52.130;5.598;2022-09-09T03:54:26;13.10;99.90
23717;DHT22;22094;52.130;5.598;2022-09-09T03:56:55;13.10;99.90
23717;DHT22;22094;52.130;5.598;2022-09-09T03:59:23;13.20;99.90
23717;DHT22;22094;52.130;5.598;2022-09-09T04:01:49;13.30;99.90
23717;DHT22;22094;52.130;5.598;2022-09-09T04:04:14;13.30;99.90
23717;DHT22;22094;52.130;5.598;2022-09-09T04:06:40;13.30;99.90
23717;DHT22;22094;52.130;5.598;2022-09-09T04:09:05;13.40;99.90
23717;DHT22;22094;52.130;5.598;2022-09-09T04:11:31;13.40;99.90
23717;DHT22;22094;52.130;5.598;2022-09-09T04:13:56;13.40;99.90
23717;DHT22;22094;52.130;5.598;2022-09-09T04:16:24;13.40;99.90
23717;DHT22;22094;52.130;5.598;2022-09-09T04:18:50;13.40;99.90
23717;DHT22;22094;52.130;5.598;2022-09-09T04:21:16;13.30;99.90
23717;DHT22;22094;52.130;5.598;2022-09-09T04:23:46;13.30;99.90
23717;DHT22;22094;52.130;5.598;2022-09-09T04:26:18;13.30;99.90
23717;DHT22;22094;52.130;5.598;2022-09-09T04:28:43;13.30;99.90
23717;DHT22;22094;52.130;5.598;2022-09-09T04:31:15;13.30;99.90
23717;DHT22;22094;52.130;5.598;2022-09-09T04:33:40;13.40;99.90
23717;DHT22;22094;52.130;5.598;2022-09-09T04:36:07;13.40;99.90
23717;DHT22;22094;52.130;5.598;2022-09-09T04:38:32;13.40;99.90
23717;DHT22;22094;52.130;5.598;2022-09-09T04:40:58;13.40;99.90
23717;DHT22;22094;52.130;5.598;2022-09-09T04:43:24;13.40;99.90
23717;DHT22;22094;52.130;5.598;2022-09-09T04:45:51;13.40;99.90
23717;DHT22;22094;52.130;5.598;2022-09-09T04:48:17;13.40;99.90
23717;DHT22;22094;52.130;5.598;2022-09-09T04:50:43;13.40;99.90
23717;DHT22;22094;52.130;5.598;2022-09-09T04:53:09;13.40;99.90
23717;DHT22;22094;52.130;5.598;2022-09-09T04:55:35;13.40;99.90
23717;DHT22;22094;52.130;5.598;2022-09-09T04:58:07;13.50;99.90
23717;DHT22;22094;52.130;5.598;2022-09-09T05:00:37;13.50;99.90
23717;DHT22;22094;52.130;5.598;2022-09-09T05:03:04;13.50;99.90
23717;DHT22;22094;52.130;5.598;2022-09-09T05:05:30;13.40;99.90
23717;DHT22;22094;52.130;5.598;2022-09-09T05:08:01;13.40;99.90
23717;DHT22;22094;52.130;5.598;2022-09-09T05:10:27;13.40;99.90
23717;DHT22;22094;52.130;5.598;2022-09-09T05:12:53;13.40;99.90
23717;DHT22;22094;52.130;5.598;2022-09-09T05:15:19;13.40;99.90
23717;DHT22;22094;52.130;5.598;2022-09-09T05:17:46;13.40;99.90
23717;DHT22;22094;52.130;5.598;2022-09-09T05:20:11;13.40;99.90
23717;DHT22;22094;52.130;5.598;2022-09-09T05:22:37;13.40;99.90
23717;DHT22;22094;52.130;5.598;2022-09-09T05:25:03;13.40;99.90
23717;DHT22;22094;52.130;5.598;2022-09-09T05:27:29;13.50;99.90
23717;DHT22;22094;52.130;5.598;2022-09-09T05:29:56;13.50;99.90
23717;DHT22;22094;52.130;5.598;2022-09-09T05:32:22;13.50;99.90
23717;DHT22;22094;52.130;5.598;2022-09-09T05:34:48;13.50;99.90
23717;DHT22;22094;52.130;5.598;2022-09-09T05:37:13;13.50;99.90
23717;DHT22;22094;52.130;5.598;2022-09-09T05:39:39;13.50;99.90
23717;DHT22;22094;52.130;5.598;2022-09-09T05:42:05;13.50;99.90
23717;DHT22;22094;52.130;5.598;2022-09-09T05:44:31;13.50;99.90
23717;DHT22;22094;52.130;5.598;2022-09-09T05:46:56;13.50;99.90
23717;DHT22;22094;52.130;5.598;2022-09-09T05:51:51;13.60;99.90
23717;DHT22;22094;52.130;5.598;2022-09-09T05:54:18;13.80;99.90
23717;DHT22;22094;52.130;5.598;2022-09-09T05:56:43;13.80;99.90
23717;DHT22;22094;52.130;5.598;2022-09-09T05:59:09;13.80;99.90
23717;DHT22;22094;52.130;5.598;2022-09-09T06:01:36;14.10;99.90
23717;DHT22;22094;52.130;5.598;2022-09-09T06:04:06;14.00;99.90
23717;DHT22;22094;52.130;5.598;2022-09-09T06:06:34;14.30;99.90
23717;DHT22;22094;52.130;5.598;2022-09-09T06:09:06;14.00;99.90
23717;DHT22;22094;52.130;5.598;2022-09-09T06:11:39;14.00;99.90
23717;DHT22;22094;52.130;5.598;2022-09-09T06:14:06;14.00;99.90
23717;DHT22;22094;52.130;5.598;2022-09-09T06:16:32;14.20;99.90
23717;DHT22;22094;52.130;5.598;2022-09-09T06:18:59;14.10;99.90
23717;DHT22;22094;52.130;5.598;2022-09-09T06:21:30;14.90;99.90
23717;DHT22;22094;52.130;5.598;2022-09-09T06:23:56;14.20;99.90
23717;DHT22;22094;52.130;5.598;2022-09-09T06:26:27;14.20;99.90
23717;DHT22;22094;52.130;5.598;2022-09-09T06:28:54;14.30;99.90
23717;DHT22;22094;52.130;5.598;2022-09-09T06:31:21;14.40;99.90
23717;DHT22;22094;52.130;5.598;2022-09-09T06:33:48;16.30;99.90
23717;DHT22;22094;52.130;5.598;2022-09-09T06:36:16;14.70;99.90
23717;DHT22;22094;52.130;5.598;2022-09-09T06:38:42;17.60;99.90
23717;DHT22;22094;52.130;5.598;2022-09-09T06:41:09;14.80;99.90
23717;DHT22;22094;52.130;5.598;2022-09-09T06:43:35;16.60;99.90
23717;DHT22;22094;52.130;5.598;2022-09-09T06:46:15;17.40;99.90
23717;DHT22;22094;52.130;5.598;2022-09-09T06:51:10;14.80;99.90
23717;DHT22;22094;52.130;5.598;2022-09-09T06:53:40;16.70;99.90
23717;DHT22;22094;52.130;5.598;2022-09-09T07:01:05;17.20;99.90
23717;DHT22;22094;52.130;5.598;2022-09-09T07:13:24;14.10;99.90
23717;DHT22;22094;52.130;5.598;2022-09-09T07:20:42;18.70;99.90
23717;DHT22;22094;52.130;5.598;2022-09-09T07:28:00;18.10;99.90
23717;DHT22;22094;52.130;5.598;2022-09-09T07:30:25;16.40;99.90
23717;DHT22;22094;52.130;5.598;2022-09-09T07:32:51;16.90;99.90
23717;DHT22;22094;52.130;5.598;2022-09-09T07:37:43;17.30;99.90
23717;DHT22;22094;52.130;5.598;2022-09-09T07:45:03;17.20;99.90
23717;DHT22;22094;52.130;5.598;2022-09-09T07:59:40;17.10;99.90
23717;DHT22;22094;52.130;5.598;2022-09-09T08:07:00;17.40;99.90
23717;DHT22;22094;52.130;5.598;2022-09-09T08:09:27;17.30;99.90
23717;DHT22;22094;52.130;5.598;2022-09-09T08:11:55;19.80;99.90
23717;DHT22;22094;52.130;5.598;2022-09-09T08:16:49;17.20;99.90
23717;DHT22;22094;52.130;5.598;2022-09-09T08:24:08;14.40;99.90
23717;DHT22;22094;52.130;5.598;2022-09-09T08:26:41;15.90;99.90
23717;DHT22;22094;52.130;5.598;2022-09-09T08:29:08;17.10;99.90
23717;DHT22;22094;52.130;5.598;2022-09-09T08:31:40;15.60;99.90
23717;DHT22;22094;52.130;5.598;2022-09-09T08:36:37;17.20;99.90
23717;DHT22;22094;52.130;5.598;2022-09-09T08:39:05;17.30;99.90
23717;DHT22;22094;52.130;5.598;2022-09-09T08:47:51;17.30;99.90
23717;DHT22;22094;52.130;5.598;2022-09-09T08:50:41;19.60;99.90
23717;DHT22;22094;52.130;5.598;2022-09-09T08:58:15;17.30;99.90
23717;DHT22;22094;52.130;5.598;2022-09-09T09:00:55;17.40;99.90
23717;DHT22;22094;52.130;5.598;2022-09-09T09:03:41;17.30;99.90
23717;DHT22;22094;52.130;5.598;2022-09-09T09:11:25;17.50;99.90
23717;DHT22;22094;52.130;5.598;2022-09-09T09:13:57;17.40;99.90
23717;DHT22;22094;52.130;5.598;2022-09-09T09:18:54;18.60;99.90
23717;DHT22;22094;52.130;5.598;2022-09-09T09:23:59;18.70;99.90
23717;DHT22;22094;52.130;5.598;2022-09-09T09:26:34;19.40;99.90
23717;DHT22;22094;52.130;5.598;2022-09-09T09:29:11;19.70;99.90
23717;DHT22;22094;52.130;5.598;2022-09-09T09:31:37;18.60;99.90
23717;DHT22;22094;52.130;5.598;2022-09-09T09:36:41;17.30;99.90
23717;DHT22;22094;52.130;5.598;2022-09-09T09:41:38;17.50;99.90
23717;DHT22;22094;52.130;5.598;2022-09-09T09:44:05;16.10;99.90
23717;DHT22;22094;52.130;5.598;2022-09-09T09:46:31;17.30;99.90
23717;DHT22;22094;52.130;5.598;2022-09-09T09:48:58;17.50;99.90
23717;DHT22;22094;52.130;5.598;2022-09-09T09:51:25;17.60;99.90
23717;DHT22;22094;52.130;5.598;2022-09-09T09:53:51;17.80;99.90
23717;DHT22;22094;52.130;5.598;2022-09-09T09:56:26;17.60;99.90
23717;DHT22;22094;52.130;5.598;2022-09-09T09:58:54;17.50;99.90
23717;DHT22;22094;52.130;5.598;2022-09-09T10:04:20;17.20;99.90
23717;DHT22;22094;52.130;5.598;2022-09-09T10:09:29;17.80;99.90
23717;DHT22;22094;52.130;5.598;2022-09-09T10:12:28;17.70;99.90
23717;DHT22;22094;52.130;5.598;2022-09-09T10:18:21;18.50;99.90
23717;DHT22;22094;52.130;5.598;2022-09-09T10:21:13;17.70;99.90
23717;DHT22;22094;52.130;5.598;2022-09-09T10:26:59;17.50;99.90
23717;DHT22;22094;52.130;5.598;2022-09-09T10:29:44;17.80;99.90
23717;DHT22;22094;52.130;5.598;2022-09-09T10:46:06;17.90;99.90
23717;DHT22;22094;52.130;5.598;2022-09-09T10:54:47;18.20;99.90
23717;DHT22;22094;52.130;5.598;2022-09-09T10:57:26;16.50;99.90
23717;DHT22;22094;52.130;5.598;2022-09-09T10:59:56;16.30;99.90
23717;DHT22;22094;52.130;5.598;2022-09-09T11:04:55;16.60;99.90
23717;DHT22;22094;52.130;5.598;2022-09-09T11:10:01;16.80;99.90
23717;DHT22;22094;52.130;5.598;2022-09-09T11:12:29;16.90;99.90
23717;DHT22;22094;52.130;5.598;2022-09-09T11:15:01;17.80;99.90
23717;DHT22;22094;52.130;5.598;2022-09-09T11:17:41;17.50;99.90
23717;DHT22;22094;52.130;5.598;2022-09-09T11:20:13;17.40;99.90
23717;DHT22;22094;52.130;5.598;2022-09-09T11:22:58;18.10;99.90
23717;DHT22;22094;52.130;5.598;2022-09-09T11:25:44;18.40;99.90
23717;DHT22;22094;52.130;5.598;2022-09-09T11:28:32;18.60;99.90
23717;DHT22;22094;52.130;5.598;2022-09-09T11:31:39;18.70;99.90
23717;DHT22;22094;52.130;5.598;2022-09-09T11:37:01;19.50;99.90
23717;DHT22;22094;52.130;5.598;2022-09-09T11:47:24;18.90;99.90
23717;DHT22;22094;52.130;5.598;2022-09-09T11:52:37;19.80;99.90
23717;DHT22;22094;52.130;5.598;2022-09-09T11:55:11;19.30;99.90
23717;DHT22;22094;52.130;5.598;2022-09-09T11:57:38;19.40;99.90
23717;DHT22;22094;52.130;5.598;2022-09-09T12:00:05;19.20;99.90
23717;DHT22;22094;52.130;5.598;2022-09-09T12:05:07;19.50;99.90
23717;DHT22;22094;52.130;5.598;2022-09-09T12:12:37;19.00;99.90
23717;DHT22;22094;52.130;5.598;2022-09-09T12:17:31;18.70;99.90
23717;DHT22;22094;52.130;5.598;2022-09-09T12:20:04;19.00;99.90
23717;DHT22;22094;52.130;5.598;2022-09-09T12:28:01;18.70;99.90
23717;DHT22;22094;52.130;5.598;2022-09-09T12:33:02;20.00;99.90
23717;DHT22;22094;52.130;5.598;2022-09-09T12:38:01;15.90;99.90
23717;DHT22;22094;52.130;5.598;2022-09-09T12:40:32;16.70;99.90
23717;DHT22;22094;52.130;5.598;2022-09-09T12:43:01;17.40;99.90
23717;DHT22;22094;52.130;5.598;2022-09-09T12:45:29;17.50;99.90
23717;DHT22;22094;52.130;5.598;2022-09-09T12:48:06;19.30;99.90
23717;DHT22;22094;52.130;5.598;2022-09-09T12:50:36;19.80;99.90
23717;DHT22;22094;52.130;5.598;2022-09-09T12:55:49;18.20;99.90
23717;DHT22;22094;52.130;5.598;2022-09-09T12:58:16;18.30;99.90
23717;DHT22;22094;52.130;5.598;2022-09-09T13:00:50;18.00;99.90
23717;DHT22;22094;52.130;5.598;2022-09-09T13:03:18;17.90;99.90
23717;DHT22;22094;52.130;5.598;2022-09-09T13:05:46;17.80;99.90
23717;DHT22;22094;52.130;5.598;2022-09-09T13:08:13;17.90;99.90
23717;DHT22;22094;52.130;5.598;2022-09-09T13:10:49;20.00;99.90
23717;DHT22;22094;52.130;5.598;2022-09-09T13:13:54;18.30;99.90
23717;DHT22;22094;52.130;5.598;2022-09-09T13:16:34;18.30;99.90
23717;DHT22;22094;52.130;5.598;2022-09-09T13:19:09;19.20;99.90
23717;DHT22;22094;52.130;5.598;2022-09-09T13:21:39;18.00;99.90
23717;DHT22;22094;52.130;5.598;2022-09-09T13:24:19;16.40;99.90
23717;DHT22;22094;52.130;5.598;2022-09-09T13:26:54;17.00;99.90
23717;DHT22;22094;52.130;5.598;2022-09-09T13:29:21;18.50;99.90
23717;DHT22;22094;52.130;5.598;2022-09-09T13:31:48;17.30;99.90
23717;DHT22;22094;52.130;5.598;2022-09-09T13:36:54;18.90;99.90
23717;DHT22;22094;52.130;5.598;2022-09-09T13:39:21;17.30;99.90
23717;DHT22;22094;52.130;5.598;2022-09-09T13:44:25;18.00;99.90
23717;DHT22;22094;52.130;5.598;2022-09-09T13:47:06;20.10;99.90
23717;DHT22;22094;52.130;5.598;2022-09-09T13:49:42;18.40;99.90
23717;DHT22;22094;52.130;5.598;2022-09-09T13:52:12;18.50;99.90
23717;DHT22;22094;52.130;5.598;2022-09-09T13:57:05;18.90;99.90
23717;DHT22;22094;52.130;5.598;2022-09-09T14:06:50;19.40;99.90
23717;DHT22;22094;52.130;5.598;2022-09-09T14:09:17;18.70;99.90
23717;DHT22;22094;52.130;5.598;2022-09-09T14:11:44;17.40;99.90
23717;DHT22;22094;52.130;5.598;2022-09-09T14:16:37;18.80;99.90
23717;DHT22;22094;52.130;5.598;2022-09-09T14:31:15;19.00;99.90
23717;DHT22;22094;52.130;5.598;2022-09-09T14:38:37;19.30;99.90
23717;DHT22;22094;52.130;5.598;2022-09-09T14:43:39;19.30;99.90
23717;DHT22;22094;52.130;5.598;2022-09-09T14:46:08;19.30;99.90
23717;DHT22;22094;52.130;5.598;2022-09-09T14:48:34;19.00;99.90
23717;DHT22;22094;52.130;5.598;2022-09-09T14:56:06;20.60;99.90
23717;DHT22;22094;52.130;5.598;2022-09-09T15:01:08;19.70;99.90
23717;DHT22;22094;52.130;5.598;2022-09-09T15:03:40;18.10;99.90
23717;DHT22;22094;52.130;5.598;2022-09-09T15:06:15;19.40;99.90
23717;DHT22;22094;52.130;5.598;2022-09-09T15:08:43;19.30;99.90
23717;DHT22;22094;52.130;5.598;2022-09-09T15:13:39;19.90;99.90
23717;DHT22;22094;52.130;5.598;2022-09-09T15:16:16;19.00;99.90
23717;DHT22;22094;52.130;5.598;2022-09-09T15:18:42;18.70;99.90
23717;DHT22;22094;52.130;5.598;2022-09-09T15:21:11;18.60;99.90
23717;DHT22;22094;52.130;5.598;2022-09-09T15:23:37;19.20;99.90
23717;DHT22;22094;52.130;5.598;2022-09-09T15:26:03;17.30;99.90
23717;DHT22;22094;52.130;5.598;2022-09-09T15:28:29;20.90;99.90
23717;DHT22;22094;52.130;5.598;2022-09-09T15:35:49;20.60;99.90
23717;DHT22;22094;52.130;5.598;2022-09-09T15:38:15;21.20;99.90
23717;DHT22;22094;52.130;5.598;2022-09-09T15:45:35;21.20;99.90
23717;DHT22;22094;52.130;5.598;2022-09-09T15:57:50;22.70;99.90
23717;DHT22;22094;52.130;5.598;2022-09-09T16:24:40;22.40;99.90
23717;DHT22;22094;52.130;5.598;2022-09-09T16:29:32;22.70;99.90
23717;DHT22;22094;52.130;5.598;2022-09-09T16:34:25;22.30;99.90
23717;DHT22;22094;52.130;5.598;2022-09-09T16:36:51;23.20;99.90
23717;DHT22;22094;52.130;5.598;2022-09-09T16:39:20;21.40;99.90
23717;DHT22;22094;52.130;5.598;2022-09-09T16:41:47;20.40;99.90
23717;DHT22;22094;52.130;5.598;2022-09-09T16:44:15;20.40;99.90
23717;DHT22;22094;52.130;5.598;2022-09-09T16:46:43;20.30;99.90
23717;DHT22;22094;52.130;5.598;2022-09-09T16:49:11;21.60;99.90
23717;DHT22;22094;52.130;5.598;2022-09-09T16:51:45;19.90;99.90
23717;DHT22;22094;52.130;5.598;2022-09-09T16:54:12;18.70;99.90
23717;DHT22;22094;52.130;5.598;2022-09-09T16:56:43;18.60;99.90
23717;DHT22;22094;52.130;5.598;2022-09-09T16:59:11;20.90;99.90
23717;DHT22;22094;52.130;5.598;2022-09-09T17:01:38;18.40;99.90
23717;DHT22;22094;52.130;5.598;2022-09-09T17:04:07;18.20;99.90
23717;DHT22;22094;52.130;5.598;2022-09-09T17:06:34;18.50;99.90
23717;DHT22;22094;52.130;5.598;2022-09-09T17:09:02;20.10;99.90
23717;DHT22;22094;52.130;5.598;2022-09-09T17:11:29;18.70;99.90
23717;DHT22;22094;52.130;5.598;2022-09-09T17:13:56;18.10;99.90
23717;DHT22;22094;52.130;5.598;2022-09-09T17:16:25;17.90;99.90
23717;DHT22;22094;52.130;5.598;2022-09-09T17:18:57;19.70;99.90
23717;DHT22;22094;52.130;5.598;2022-09-09T17:21:27;18.00;99.90
23717;DHT22;22094;52.130;5.598;2022-09-09T17:23:54;19.20;99.90
23717;DHT22;22094;52.130;5.598;2022-09-09T17:26:22;17.60;99.90
23717;DHT22;22094;52.130;5.598;2022-09-09T17:28:48;18.90;99.90
23717;DHT22;22094;52.130;5.598;2022-09-09T17:31:16;19.80;99.90
23717;DHT22;22094;52.130;5.598;2022-09-09T17:33:44;17.50;99.90
23717;DHT22;22094;52.130;5.598;2022-09-09T17:36:12;17.40;99.90
23717;DHT22;22094;52.130;5.598;2022-09-09T17:41:10;17.20;99.90
23717;DHT22;22094;52.130;5.598;2022-09-09T17:43:36;17.10;99.90
23717;DHT22;22094;52.130;5.598;2022-09-09T17:46:14;17.10;99.90
23717;DHT22;22094;52.130;5.598;2022-09-09T17:48:40;17.00;99.90
23717;DHT22;22094;52.130;5.598;2022-09-09T17:51:08;17.10;99.90
23717;DHT22;22094;52.130;5.598;2022-09-09T17:53:39;17.20;99.90
23717;DHT22;22094;52.130;5.598;2022-09-09T17:56:07;17.20;99.90
23717;DHT22;22094;52.130;5.598;2022-09-09T17:58:33;17.20;99.90
23717;DHT22;22094;52.130;5.598;2022-09-09T18:01:10;17.30;99.90
23717;DHT22;22094;52.130;5.598;2022-09-09T18:03:38;17.20;99.90
23717;DHT22;22094;52.130;5.598;2022-09-09T18:06:07;17.20;99.90
23717;DHT22;22094;52.130;5.598;2022-09-09T18:08:33;17.10;99.90
23717;DHT22;22094;52.130;5.598;2022-09-09T18:11:01;17.10;99.90
23717;DHT22;22094;52.130;5.598;2022-09-09T18:13:27;17.10;99.90
23717;DHT22;22094;52.130;5.598;2022-09-09T18:15:54;17.10;99.90
23717;DHT22;22094;52.130;5.598;2022-09-09T18:18:21;17.00;99.90
23717;DHT22;22094;52.130;5.598;2022-09-09T18:21:05;17.00;99.90
23717;DHT22;22094;52.130;5.598;2022-09-09T18:23:39;17.00;99.90
23717;DHT22;22094;52.130;5.598;2022-09-09T18:26:13;17.00;99.90
23717;DHT22;22094;52.130;5.598;2022-09-09T18:28:40;16.90;99.90
23717;DHT22;22094;52.130;5.598;2022-09-09T18:31:12;16.80;99.90
23717;DHT22;22094;52.130;5.598;2022-09-09T18:33:39;16.80;99.90
23717;DHT22;22094;52.130;5.598;2022-09-09T18:36:13;16.80;99.90
23717;DHT22;22094;52.130;5.598;2022-09-09T18:38:39;16.80;99.90
23717;DHT22;22094;52.130;5.598;2022-09-09T18:41:25;16.80;99.90
23717;DHT22;22094;52.130;5.598;2022-09-09T18:43:54;16.80;99.90
23717;DHT22;22094;52.130;5.598;2022-09-09T18:46:21;16.90;99.90
23717;DHT22;22094;52.130;5.598;2022-09-09T18:48:47;16.80;99.90
23717;DHT22;22094;52.130;5.598;2022-09-09T18:51:16;16.80;99.90
23717;DHT22;22094;52.130;5.598;2022-09-09T18:53:42;16.70;99.90
23717;DHT22;22094;52.130;5.598;2022-09-09T18:56:11;16.70;99.90
23717;DHT22;22094;52.130;5.598;2022-09-09T18:58:37;16.70;99.90
23717;DHT22;22094;52.130;5.598;2022-09-09T19:01:04;16.80;99.90
23717;DHT22;22094;52.130;5.598;2022-09-09T19:03:34;16.80;99.90
23717;DHT22;22094;52.130;5.598;2022-09-09T19:06:06;16.80;99.90
23717;DHT22;22094;52.130;5.598;2022-09-09T19:08:35;16.70;99.90
23717;DHT22;22094;52.130;5.598;2022-09-09T19:11:06;16.50;99.90
23717;DHT22;22094;52.130;5.598;2022-09-09T19:13:33;16.40;99.90
23717;DHT22;22094;52.130;5.598;2022-09-09T19:16:05;16.40;99.90
23717;DHT22;22094;52.130;5.598;2022-09-09T19:18:32;16.30;99.90
23717;DHT22;22094;52.130;5.598;2022-09-09T19:21:11;16.30;99.90
23717;DHT22;22094;52.130;5.598;2022-09-09T19:23:37;16.30;99.90
23717;DHT22;22094;52.130;5.598;2022-09-09T19:26:03;16.20;99.90
23717;DHT22;22094;52.130;5.598;2022-09-09T19:28:31;16.30;99.90
23717;DHT22;22094;52.130;5.598;2022-09-09T19:31:05;16.40;99.90
23717;DHT22;22094;52.130;5.598;2022-09-09T19:33:32;16.40;99.90
23717;DHT22;22094;52.130;5.598;2022-09-09T19:36:00;16.30;99.90
23717;DHT22;22094;52.130;5.598;2022-09-09T19:38:29;16.20;99.90
23717;DHT22;22094;52.130;5.598;2022-09-09T19:40:55;16.30;99.90
23717;DHT22;22094;52.130;5.598;2022-09-09T19:43:26;16.20;99.90
23717;DHT22;22094;52.130;5.598;2022-09-09T19:45:56;16.20;99.90
23717;DHT22;22094;52.130;5.598;2022-09-09T19:48:22;16.10;99.90
23717;DHT22;22094;52.130;5.598;2022-09-09T19:50:49;16.10;99.90
23717;DHT22;22094;52.130;5.598;2022-09-09T19:53:14;16.10;99.90
23717;DHT22;22094;52.130;5.598;2022-09-09T19:55:42;16.20;99.90
23717;DHT22;22094;52.130;5.598;2022-09-09T19:58:07;16.10;99.90
23717;DHT22;22094;52.130;5.598;2022-09-09T20:00:33;16.20;99.90
23717;DHT22;22094;52.130;5.598;2022-09-09T20:02:59;16.10;99.90
23717;DHT22;22094;52.130;5.598;2022-09-09T20:05:25;16.10;99.90
23717;DHT22;22094;52.130;5.598;2022-09-09T20:07:50;16.00;99.90
23717;DHT22;22094;52.130;5.598;2022-09-09T20:10:16;16.00;99.90
23717;DHT22;22094;52.130;5.598;2022-09-09T20:12:41;15.90;99.90
23717;DHT22;22094;52.130;5.598;2022-09-09T20:15:07;15.80;99.90
23717;DHT22;22094;52.130;5.598;2022-09-09T20:17:34;15.70;99.90
23717;DHT22;22094;52.130;5.598;2022-09-09T20:19:59;15.60;99.90
23717;DHT22;22094;52.130;5.598;2022-09-09T20:22:28;15.60;99.90
23717;DHT22;22094;52.130;5.598;2022-09-09T20:24:53;15.60;99.90
23717;DHT22;22094;52.130;5.598;2022-09-09T20:27:19;15.60;99.90
23717;DHT22;22094;52.130;5.598;2022-09-09T20:29:45;15.50;99.90
23717;DHT22;22094;52.130;5.598;2022-09-09T20:32:11;15.40;99.90
23717;DHT22;22094;52.130;5.598;2022-09-09T20:34:37;15.50;99.90
23717;DHT22;22094;52.130;5.598;2022-09-09T20:37:03;15.40;99.90
23717;DHT22;22094;52.130;5.598;2022-09-09T20:39:30;15.50;99.90
23717;DHT22;22094;52.130;5.598;2022-09-09T20:41:55;15.40;99.90
23717;DHT22;22094;52.130;5.598;2022-09-09T20:44:22;15.40;99.90
23717;DHT22;22094;52.130;5.598;2022-09-09T20:46:50;15.40;99.90
23717;DHT22;22094;52.130;5.598;2022-09-09T20:49:19;15.40;99.90